createdAt,value
2023-03-17T00:00:40.924Z,7.00
2023-03-17T00:03:08.529Z,7.40
2023-03-17T00:05:36.229Z,7.40
2023-03-17T00:08:24.103Z,7.20
2023-03-17T00:10:51.581Z,7.20
2023-03-17T00:13:19.217Z,7.20
2023-03-17T00:15:50.718Z,7.20
2023-03-17T00:18:19.156Z,7.20
2023-03-17T00:20:47.615Z,7.20
2023-03-17T00:23:21.608Z,7.30
2023-03-17T00:25:49.957Z,7.40
2023-03-17T00:28:18.655Z,7.20
2023-03-17T00:30:46.127Z,7.20
2023-03-17T00:33:16.036Z,7.40
2023-03-17T00:35:44.174Z,7.10
2023-03-17T00:38:15.928Z,7.20
2023-03-17T00:40:43.259Z,7.10
2023-03-17T00:43:10.485Z,7.30
2023-03-17T00:45:39.370Z,7.40
2023-03-17T00:48:15.020Z,7.10
2023-03-17T00:50:42.570Z,7.10
2023-03-17T00:53:15.745Z,7.10
2023-03-17T00:55:44.729Z,7.10
2023-03-17T00:58:27.193Z,7.10
2023-03-17T01:00:55.146Z,7.00
2023-03-17T01:03:23.024Z,7.00
2023-03-17T01:05:51.731Z,7.00
2023-03-17T01:08:18.909Z,7.00
2023-03-17T01:10:45.894Z,6.90
2023-03-17T01:13:13.763Z,6.90
2023-03-17T01:15:46.966Z,6.90
2023-03-17T01:18:16.129Z,6.80
2023-03-17T01:20:43.944Z,6.90
2023-03-17T01:23:12.269Z,6.80
2023-03-17T01:25:42.746Z,6.80
2023-03-17T01:28:15.329Z,6.80
2023-03-17T01:30:42.486Z,7.10
2023-03-17T01:33:11.803Z,7.10
2023-03-17T01:35:40.339Z,7.10
2023-03-17T01:38:08.428Z,6.80
2023-03-17T01:40:42.486Z,6.80
2023-03-17T01:43:09.383Z,6.80
2023-03-17T01:46:13.803Z,6.80
2023-03-17T01:48:48.609Z,6.70
2023-03-17T01:51:21.085Z,6.70
2023-03-17T01:53:51.080Z,6.70
2023-03-17T01:56:18.992Z,6.70
2023-03-17T01:58:49.842Z,6.80
2023-03-17T02:01:17.793Z,6.80
2023-03-17T02:03:45.162Z,6.80
2023-03-17T02:06:13.101Z,6.80
2023-03-17T02:08:40.089Z,6.80
2023-03-17T02:11:07.306Z,6.80
2023-03-17T02:13:35.075Z,6.70
2023-03-17T02:16:02.189Z,6.70
2023-03-17T02:18:29.167Z,6.70
2023-03-17T02:21:33.651Z,6.70
2023-03-17T02:24:07.048Z,6.70
2023-03-17T02:26:37.860Z,6.60
2023-03-17T02:29:06.044Z,6.60
2023-03-17T02:31:34.708Z,6.60
2023-03-17T02:34:01.936Z,6.60
2023-03-17T02:36:29.385Z,6.60
2023-03-17T02:38:57.514Z,6.60
2023-03-17T02:41:24.667Z,6.80
2023-03-17T02:43:53.678Z,6.60
2023-03-17T02:46:20.794Z,6.50
2023-03-17T02:48:47.920Z,6.40
2023-03-17T02:51:15.342Z,6.40
2023-03-17T02:53:42.239Z,6.50
2023-03-17T02:56:09.941Z,6.70
2023-03-17T02:58:36.896Z,6.50
2023-03-17T03:01:04.218Z,6.50
2023-03-17T03:03:31.613Z,6.50
2023-03-17T03:05:59.203Z,6.60
2023-03-17T03:08:27.163Z,6.60
2023-03-17T03:10:54.978Z,6.40
2023-03-17T03:13:22.049Z,6.40
2023-03-17T03:15:49.126Z,6.40
2023-03-17T03:18:16.007Z,6.40
2023-03-17T03:20:44.467Z,6.50
2023-03-17T03:23:12.022Z,6.40
2023-03-17T03:25:39.370Z,6.40
2023-03-17T03:28:08.149Z,6.40
2023-03-17T03:30:36.736Z,6.40
2023-03-17T03:33:04.171Z,6.40
2023-03-17T03:35:31.566Z,6.40
2023-03-17T03:37:58.644Z,6.70
2023-03-17T03:40:26.190Z,6.50
2023-03-17T03:42:53.182Z,6.50
2023-03-17T03:45:20.332Z,6.80
2023-03-17T03:47:47.248Z,6.60
2023-03-17T03:50:14.317Z,6.60
2023-03-17T03:52:41.503Z,6.60
2023-03-17T03:55:08.974Z,6.60
2023-03-17T03:57:36.202Z,6.70
2023-03-17T04:00:05.127Z,6.60
2023-03-17T04:02:32.148Z,6.60
2023-03-17T04:04:59.283Z,6.60
2023-03-17T04:07:26.219Z,6.60
2023-03-17T04:09:53.208Z,6.80
2023-03-17T04:12:20.341Z,6.50
2023-03-17T04:14:47.277Z,6.50
2023-03-17T04:17:14.761Z,6.50
2023-03-17T04:19:41.659Z,6.50
2023-03-17T04:22:10.313Z,6.50
2023-03-17T04:24:37.701Z,6.80
2023-03-17T04:27:06.129Z,6.70
2023-03-17T04:29:33.366Z,6.50
2023-03-17T04:32:00.382Z,6.50
2023-03-17T04:34:27.282Z,6.40
2023-03-17T04:36:54.601Z,6.40
2023-03-17T04:39:21.452Z,6.40
2023-03-17T04:41:48.364Z,6.40
2023-03-17T04:44:15.359Z,6.30
2023-03-17T04:46:42.236Z,6.20
2023-03-17T04:49:09.484Z,6.10
2023-03-17T04:51:36.898Z,6.30
2023-03-17T04:54:04.348Z,6.10
2023-03-17T04:56:32.083Z,6.10
2023-03-17T04:58:59.049Z,6.00
2023-03-17T05:01:26.436Z,6.20
2023-03-17T05:03:53.457Z,6.00
2023-03-17T05:06:20.479Z,5.90
2023-03-17T05:08:47.453Z,5.80
2023-03-17T05:11:15.293Z,5.80
2023-03-17T05:13:42.242Z,6.10
2023-03-17T05:16:09.843Z,5.70
2023-03-17T05:18:37.310Z,5.70
2023-03-17T05:21:06.272Z,5.70
2023-03-17T05:23:33.753Z,5.70
2023-03-17T05:26:00.698Z,5.70
2023-03-17T05:28:27.754Z,5.70
2023-03-17T05:30:54.710Z,5.70
2023-03-17T05:33:21.884Z,5.70
2023-03-17T05:35:49.032Z,5.70
2023-03-17T05:38:16.056Z,5.90
2023-03-17T05:40:43.999Z,5.70
2023-03-17T05:43:11.352Z,5.50
2023-03-17T05:45:39.163Z,5.80
2023-03-17T05:48:06.270Z,5.80
2023-03-17T05:50:33.615Z,5.80
2023-03-17T05:53:01.059Z,5.90
2023-03-17T05:55:27.972Z,6.00
2023-03-17T05:57:54.956Z,6.00
2023-03-17T06:00:23.594Z,6.10
2023-03-17T06:02:50.522Z,6.10
2023-03-17T06:05:17.584Z,6.20
2023-03-17T06:07:53.971Z,6.30
2023-03-17T06:10:23.816Z,6.40
2023-03-17T06:12:50.968Z,6.60
2023-03-17T06:15:17.896Z,6.70
2023-03-17T06:17:47.441Z,6.80
2023-03-17T06:20:14.924Z,6.90
2023-03-17T06:23:00.333Z,7.00
2023-03-17T06:25:29.942Z,7.40
2023-03-17T06:27:57.626Z,8.00
2023-03-17T06:30:24.665Z,8.50
2023-03-17T06:32:51.526Z,9.00
2023-03-17T06:35:18.835Z,9.40
2023-03-17T06:37:45.770Z,9.70
2023-03-17T06:40:13.279Z,10.30
2023-03-17T06:42:40.300Z,11.10
2023-03-17T06:45:09.298Z,11.90
2023-03-17T06:47:37.279Z,12.40
2023-03-17T06:50:05.861Z,12.60
2023-03-17T06:52:32.936Z,12.40
2023-03-17T06:54:59.823Z,12.00
2023-03-17T06:57:26.956Z,11.60
2023-03-17T06:59:54.038Z,11.30
2023-03-17T07:02:21.035Z,11.10
2023-03-17T07:04:48.087Z,10.90
2023-03-17T07:07:15.053Z,10.70
2023-03-17T07:09:42.031Z,10.60
2023-03-17T07:12:10.293Z,10.40
2023-03-17T07:14:39.664Z,10.20
2023-03-17T07:17:06.811Z,10.10
2023-03-17T07:19:35.063Z,10.00
2023-03-17T07:22:02.138Z,9.90
2023-03-17T07:24:29.129Z,9.70
2023-03-17T07:26:56.102Z,9.70
2023-03-17T07:29:23.161Z,9.60
2023-03-17T07:31:50.579Z,9.60
2023-03-17T07:34:17.991Z,9.60
2023-03-17T07:36:44.912Z,9.60
2023-03-17T07:39:12.769Z,9.70
2023-03-17T07:41:39.752Z,9.70
2023-03-17T07:44:06.842Z,9.70
2023-03-17T07:46:33.800Z,9.80
2023-03-17T07:49:00.717Z,9.80
2023-03-17T07:51:28.244Z,10.00
2023-03-17T07:54:04.579Z,9.90
2023-03-17T07:56:32.716Z,9.90
2023-03-17T07:59:00.012Z,10.30
2023-03-17T08:01:31.196Z,10.10
2023-03-17T08:06:55.669Z,10.30
2023-03-17T08:09:23.295Z,10.40
2023-03-17T08:11:52.450Z,10.50
2023-03-17T08:14:21.132Z,10.60
2023-03-17T08:17:01.621Z,10.70
2023-03-17T08:19:36.824Z,10.60
2023-03-17T08:22:07.407Z,11.00
2023-03-17T08:24:34.574Z,11.20
2023-03-17T08:27:01.658Z,11.40
2023-03-17T08:29:29.201Z,11.60
2023-03-17T08:31:57.292Z,11.90
2023-03-17T08:34:24.631Z,12.20
2023-03-17T08:36:51.811Z,12.30
2023-03-17T08:39:19.450Z,12.50
2023-03-17T08:41:48.679Z,12.60
2023-03-17T08:44:16.565Z,12.70
2023-03-17T08:46:43.542Z,13.00
2023-03-17T08:49:11.012Z,12.90
2023-03-17T08:51:39.278Z,12.90
2023-03-17T08:54:10.338Z,13.20
2023-03-17T08:56:39.416Z,13.10
2023-03-17T08:59:07.734Z,13.20
2023-03-17T09:01:35.275Z,13.20
2023-03-17T09:04:02.725Z,13.30
2023-03-17T09:06:30.270Z,13.30
2023-03-17T09:08:57.311Z,13.10
2023-03-17T09:11:27.904Z,13.50
2023-03-17T09:13:55.571Z,13.50
2023-03-17T09:16:23.874Z,13.50
2023-03-17T09:18:51.187Z,13.60
2023-03-17T09:21:18.606Z,13.60
2023-03-17T09:23:45.493Z,13.60
2023-03-17T09:26:12.689Z,13.70
2023-03-17T09:28:39.777Z,13.80
2023-03-17T09:31:11.409Z,13.80
2023-03-17T09:33:41.952Z,13.90
2023-03-17T09:36:10.534Z,13.90
2023-03-17T09:38:38.469Z,13.90
2023-03-17T09:41:31.333Z,14.10
2023-03-17T09:44:08.373Z,14.00
2023-03-17T09:46:41.199Z,14.00
2023-03-17T09:49:14.604Z,14.10
2023-03-17T09:51:43.834Z,14.10
2023-03-17T09:54:28.030Z,14.10
2023-03-17T09:57:06.083Z,14.10
2023-03-17T09:59:38.072Z,14.10
2023-03-17T10:02:18.642Z,14.20
2023-03-17T10:04:46.266Z,14.30
2023-03-17T10:07:19.075Z,14.40
2023-03-17T10:09:58.773Z,14.50
2023-03-17T10:12:49.440Z,14.60
2023-03-17T10:15:36.073Z,14.80
2023-03-17T10:18:11.405Z,15.00
2023-03-17T10:20:46.732Z,15.10
2023-03-17T10:23:17.121Z,15.20
2023-03-17T10:25:44.072Z,15.20
2023-03-17T10:39:24.740Z,14.50
2023-03-17T10:42:16.370Z,14.60
2023-03-17T10:44:58.283Z,14.90
2023-03-17T10:47:44.495Z,15.10
2023-03-17T10:50:22.877Z,15.40
2023-03-17T10:53:00.599Z,15.70
2023-03-17T10:55:39.355Z,15.90
2023-03-17T10:58:15.479Z,16.20
2023-03-17T11:01:00.124Z,16.40
2023-03-17T11:03:35.865Z,16.60
2023-03-17T11:06:12.147Z,16.80
2023-03-17T11:08:41.608Z,17.10
2023-03-17T11:11:26.869Z,17.30
2023-03-17T11:14:11.653Z,17.50
2023-03-17T11:16:46.236Z,17.70
2023-03-17T11:19:16.712Z,17.80
2023-03-17T11:22:03.532Z,17.80
2023-03-17T11:24:33.617Z,17.90
2023-03-17T11:27:30.327Z,17.90
2023-03-17T11:30:34.515Z,18.00
2023-03-17T11:33:23.209Z,18.20
2023-03-17T11:36:09.076Z,18.10
2023-03-17T11:38:49.664Z,18.10
2023-03-17T11:41:36.181Z,18.10
2023-03-17T11:44:25.940Z,18.10
2023-03-17T11:47:04.182Z,18.00
2023-03-17T11:49:37.956Z,17.90
2023-03-17T11:52:33.644Z,17.90
2023-03-17T11:55:24.773Z,17.80
2023-03-17T11:58:06.630Z,17.90
2023-03-17T12:00:50.627Z,17.90
2023-03-17T12:03:46.224Z,17.90
2023-03-17T12:06:25.804Z,17.90
2023-03-17T12:09:00.369Z,17.90
2023-03-17T12:11:30.576Z,18.00
2023-03-17T12:14:07.194Z,18.10
2023-03-17T12:16:57.077Z,18.30
2023-03-17T12:19:30.500Z,18.30
2023-03-17T12:22:17.170Z,18.30
2023-03-17T12:24:52.838Z,18.40
2023-03-17T12:27:31.648Z,18.50
2023-03-17T12:30:30.879Z,18.70
2023-03-17T12:33:30.568Z,18.80
2023-03-17T12:35:59.603Z,18.80
2023-03-17T12:38:43.839Z,18.80
2023-03-17T12:41:43.013Z,18.80
2023-03-17T12:44:31.427Z,18.80
2023-03-17T12:47:20.344Z,18.80
2023-03-17T12:50:12.403Z,18.80
2023-03-17T12:53:04.251Z,18.80
2023-03-17T12:55:33.530Z,18.80
2023-03-17T12:58:16.205Z,18.80
2023-03-17T13:01:32.004Z,18.90
2023-03-17T13:04:15.392Z,19.00
2023-03-17T13:06:58.154Z,19.10
2023-03-17T13:09:35.797Z,19.20
2023-03-17T13:12:05.647Z,19.30
2023-03-17T13:14:47.953Z,19.50
2023-03-17T13:17:18.608Z,19.50
2023-03-17T13:20:14.576Z,19.60
2023-03-17T13:23:15.906Z,19.80
2023-03-17T13:25:44.023Z,19.90
2023-03-17T13:28:12.127Z,19.90
2023-03-17T13:30:39.033Z,20.00
2023-03-17T13:33:12.035Z,20.00
2023-03-17T13:36:00.566Z,20.10
2023-03-17T13:38:30.270Z,20.10
2023-03-17T13:41:28.133Z,20.10
2023-03-17T13:44:25.311Z,20.20
2023-03-17T13:46:53.009Z,20.10
2023-03-17T13:49:19.975Z,20.00
2023-03-17T13:52:14.626Z,20.00
2023-03-17T13:54:49.314Z,20.10
2023-03-17T13:57:35.728Z,20.00
2023-03-17T14:00:24.110Z,20.00
2023-03-17T14:03:03.394Z,20.00
2023-03-17T14:05:35.575Z,20.00
2023-03-17T14:08:15.853Z,20.10
2023-03-17T14:10:44.446Z,20.10
2023-03-17T14:13:25.535Z,20.10
2023-03-17T14:16:03.852Z,20.10
2023-03-17T14:18:36.249Z,20.10
2023-03-17T14:21:10.515Z,20.10
2023-03-17T14:23:38.132Z,20.10
2023-03-17T14:26:07.081Z,20.00
2023-03-17T14:28:35.406Z,19.90
2023-03-17T14:31:06.225Z,19.90
2023-03-17T14:33:38.153Z,19.90
2023-03-17T14:36:08.930Z,19.90
2023-03-17T14:38:38.681Z,19.90
2023-03-17T14:41:25.434Z,19.90
2023-03-17T14:43:57.093Z,19.90
2023-03-17T14:46:30.614Z,19.90
2023-03-17T14:49:59.368Z,19.90
2023-03-17T14:52:30.622Z,19.80
2023-03-17T14:54:59.839Z,19.70
2023-03-17T14:57:30.217Z,19.70
2023-03-17T15:00:00.804Z,19.70
2023-03-17T15:02:35.967Z,19.60
2023-03-17T15:05:30.741Z,19.50
2023-03-17T15:07:57.750Z,19.50
2023-03-17T15:10:31.190Z,19.40
2023-03-17T15:13:03.172Z,19.40
2023-03-17T15:15:37.423Z,19.40
2023-03-17T15:18:10.942Z,19.30
2023-03-17T15:20:38.182Z,19.30
2023-03-17T15:23:17.019Z,19.30
2023-03-17T15:25:56.415Z,19.20
2023-03-17T15:28:26.347Z,19.20
2023-03-17T15:30:56.367Z,19.20
2023-03-17T15:33:26.226Z,19.10
2023-03-17T15:35:53.330Z,19.10
2023-03-17T15:38:21.441Z,19.10
2023-03-17T15:40:48.776Z,19.00
2023-03-17T15:43:17.668Z,19.00
2023-03-17T15:45:46.409Z,19.00
2023-03-17T15:48:23.846Z,18.90
2023-03-17T15:50:51.665Z,18.90
2023-03-17T15:53:19.570Z,18.90
2023-03-17T15:55:47.157Z,18.70
2023-03-17T15:58:14.580Z,18.60
2023-03-17T16:00:42.206Z,18.60
2023-03-17T16:03:27.625Z,18.50
2023-03-17T16:05:54.469Z,18.40
2023-03-17T16:08:21.894Z,18.40
2023-03-17T16:10:48.727Z,18.30
2023-03-17T16:13:15.681Z,18.30
2023-03-17T16:15:47.216Z,18.20
2023-03-17T16:18:18.129Z,18.30
2023-03-17T16:20:50.869Z,18.10
2023-03-17T16:23:23.256Z,18.00
2023-03-17T16:25:51.653Z,18.00
2023-03-17T16:28:21.941Z,17.90
2023-03-17T16:30:50.909Z,17.80
2023-03-17T16:33:26.918Z,17.70
2023-03-17T16:35:55.727Z,17.60
2023-03-17T16:38:25.079Z,17.50
2023-03-17T16:40:59.154Z,17.50
2023-03-17T16:43:28.796Z,17.40
2023-03-17T16:45:58.359Z,17.30
2023-03-17T16:48:26.359Z,17.30
2023-03-17T16:50:53.623Z,17.20
2023-03-17T16:53:20.897Z,17.10
2023-03-17T16:55:48.067Z,17.00
2023-03-17T16:58:26.351Z,16.90
2023-03-17T17:00:57.919Z,16.80
2023-03-17T17:03:25.024Z,16.70
2023-03-17T17:05:51.886Z,16.60
2023-03-17T17:08:18.870Z,16.70
2023-03-17T17:10:45.947Z,16.50
2023-03-17T17:13:12.943Z,16.30
2023-03-17T17:15:41.104Z,16.50
2023-03-17T17:18:17.076Z,16.20
2023-03-17T17:20:45.469Z,16.20
2023-03-17T17:23:16.359Z,16.10
2023-03-17T17:25:43.923Z,15.90
2023-03-17T17:28:11.349Z,15.80
2023-03-17T17:30:38.256Z,15.80
2023-03-17T17:33:05.273Z,15.80
2023-03-17T17:35:33.330Z,15.70
2023-03-17T17:38:04.073Z,15.60
2023-03-17T17:40:32.165Z,15.50
2023-03-17T17:42:59.317Z,15.50
2023-03-17T17:45:26.265Z,15.40
2023-03-17T17:47:53.151Z,15.40
2023-03-17T17:50:24.348Z,15.30
2023-03-17T17:52:51.580Z,15.30
2023-03-17T17:55:19.394Z,15.30
2023-03-17T17:57:46.535Z,15.20
2023-03-17T18:00:17.184Z,15.20
2023-03-17T18:02:44.629Z,15.10
2023-03-17T18:05:12.723Z,15.00
2023-03-17T18:07:39.886Z,15.00
2023-03-17T18:10:07.682Z,14.90
2023-03-17T18:12:35.344Z,14.80
2023-03-17T18:15:02.757Z,14.80
2023-03-17T18:17:31.989Z,14.70
2023-03-17T18:19:59.499Z,14.60
2023-03-17T18:22:27.004Z,14.60
2023-03-17T18:24:53.902Z,14.60
2023-03-17T18:27:20.877Z,14.50
2023-03-17T18:29:48.234Z,14.50
2023-03-17T18:32:15.810Z,14.50
2023-03-17T18:34:47.286Z,14.40
2023-03-17T18:37:17.352Z,14.40
2023-03-17T18:39:46.013Z,14.30
2023-03-17T18:42:15.999Z,14.30
2023-03-17T18:44:42.864Z,14.30
2023-03-17T18:47:10.465Z,14.20
2023-03-17T18:49:37.357Z,14.10
2023-03-17T18:52:05.122Z,14.30
2023-03-17T18:54:32.262Z,14.10
2023-03-17T18:56:59.181Z,14.10
2023-03-17T18:59:26.123Z,14.10
2023-03-17T19:01:53.076Z,14.00
2023-03-17T19:04:20.458Z,14.00
2023-03-17T19:06:50.938Z,14.00
2023-03-17T19:09:17.890Z,14.10
2023-03-17T19:11:44.924Z,13.90
2023-03-17T19:14:13.977Z,13.90
2023-03-17T19:16:40.936Z,13.80
2023-03-17T19:19:08.249Z,14.00
2023-03-17T19:21:35.139Z,13.80
2023-03-17T19:24:03.218Z,13.80
2023-03-17T19:26:31.135Z,13.70
2023-03-17T19:28:58.231Z,13.70
2023-03-17T19:31:25.434Z,13.70
2023-03-17T19:33:52.409Z,13.70
2023-03-17T19:36:19.279Z,13.70
2023-03-17T19:38:46.297Z,13.60
2023-03-17T19:41:15.397Z,13.60
2023-03-17T19:43:42.752Z,13.60
2023-03-17T19:46:11.951Z,13.60
2023-03-17T19:48:39.556Z,13.60
2023-03-17T19:51:07.929Z,13.70
2023-03-17T19:53:35.210Z,13.70
2023-03-17T19:56:05.452Z,13.70
2023-03-17T19:58:32.470Z,13.70
2023-03-17T20:00:59.367Z,13.80
2023-03-17T20:03:26.492Z,13.70
2023-03-17T20:05:56.599Z,13.60
2023-03-17T20:08:24.639Z,13.60
2023-03-17T20:10:54.809Z,13.60
2023-03-17T20:13:22.542Z,13.70
2023-03-17T20:15:49.978Z,13.60
2023-03-17T20:18:17.264Z,13.60
2023-03-17T20:20:49.440Z,13.60
2023-03-17T20:23:17.385Z,13.60
2023-03-17T20:25:44.658Z,13.60
2023-03-17T20:28:12.487Z,13.70
2023-03-17T20:30:40.508Z,13.60
2023-03-17T20:33:08.279Z,13.60
2023-03-17T20:35:35.452Z,13.70
2023-03-17T20:38:02.744Z,13.70
2023-03-17T20:40:29.853Z,13.70
2023-03-17T20:42:57.186Z,13.70
2023-03-17T20:45:24.447Z,13.70
2023-03-17T20:47:51.669Z,13.80
2023-03-17T20:50:18.656Z,13.70
2023-03-17T20:52:45.588Z,13.70
2023-03-17T20:55:13.983Z,13.70
2023-03-17T20:57:42.264Z,13.70
2023-03-17T21:00:20.050Z,13.70
2023-03-17T21:02:50.023Z,13.70
2023-03-17T21:05:23.179Z,13.70
2023-03-17T21:07:50.546Z,13.70
2023-03-17T21:10:18.545Z,13.70
2023-03-17T21:12:46.325Z,13.70
2023-03-17T21:15:13.966Z,13.70
2023-03-17T21:17:42.198Z,13.70
2023-03-17T21:20:11.923Z,13.80
2023-03-17T21:22:39.973Z,13.80
2023-03-17T21:25:08.878Z,13.70
2023-03-17T21:27:40.120Z,13.70
2023-03-17T21:30:11.955Z,13.90
2023-03-17T21:32:40.003Z,13.70
2023-03-17T21:35:07.976Z,13.90
2023-03-17T21:37:35.405Z,13.70
2023-03-17T21:40:02.503Z,13.70
2023-03-17T21:42:29.548Z,13.70
2023-03-17T21:44:56.729Z,13.60
2023-03-17T21:47:23.659Z,13.60
2023-03-17T21:49:50.513Z,13.60
2023-03-17T21:52:20.729Z,13.60
2023-03-17T21:54:47.956Z,13.60
2023-03-17T21:57:14.873Z,13.70
2023-03-17T21:59:42.253Z,13.60
2023-03-17T22:02:12.499Z,13.60
2023-03-17T22:04:39.779Z,13.60
2023-03-17T22:07:06.930Z,13.60
2023-03-17T22:09:33.984Z,13.60
2023-03-17T22:12:00.925Z,13.60
2023-03-17T22:14:28.049Z,13.60
2023-03-17T22:16:54.991Z,13.60
2023-03-17T22:19:22.566Z,13.60
2023-03-17T22:21:50.418Z,13.70
2023-03-17T22:24:17.763Z,13.50
2023-03-17T22:26:44.904Z,13.50
2023-03-17T22:29:11.956Z,13.60
2023-03-17T22:31:39.286Z,13.60
2023-03-17T22:34:06.562Z,13.60
2023-03-17T22:36:33.670Z,13.70
2023-03-17T22:39:00.722Z,13.50
2023-03-17T22:41:29.412Z,13.80
2023-03-17T22:43:57.453Z,13.50
2023-03-17T22:46:25.385Z,13.50
2023-03-17T22:48:52.523Z,13.50
2023-03-17T22:51:24.634Z,13.60
2023-03-17T22:53:51.932Z,13.50
2023-03-17T22:56:19.533Z,13.50
2023-03-17T22:58:47.183Z,13.50
2023-03-17T23:01:16.437Z,13.50
2023-03-17T23:03:43.905Z,13.50
2023-03-17T23:06:13.084Z,13.50
2023-03-17T23:08:42.699Z,13.50
2023-03-17T23:11:13.637Z,13.50
2023-03-17T23:13:41.530Z,13.40
2023-03-17T23:16:09.180Z,13.60
2023-03-17T23:18:36.200Z,13.40
2023-03-17T23:21:03.947Z,13.40
2023-03-17T23:23:31.726Z,13.40
2023-03-17T23:25:58.764Z,13.30
2023-03-17T23:28:26.131Z,13.40
2023-03-17T23:30:54.419Z,13.30
2023-03-17T23:33:22.916Z,13.30
2023-03-17T23:35:51.382Z,13.30
2023-03-17T23:38:19.623Z,13.30
2023-03-17T23:40:47.541Z,13.30
2023-03-17T23:43:14.636Z,13.30
2023-03-17T23:45:42.177Z,13.30
2023-03-17T23:48:10.101Z,13.30
2023-03-17T23:50:39.212Z,13.20
2023-03-17T23:53:06.155Z,13.20
2023-03-17T23:55:33.061Z,13.20
2023-03-17T23:58:01.273Z,13.10
